createdAt,value
2018-04-22T00:00:18.647Z,97050.75
2018-04-22T00:02:44.576Z,97053.40
2018-04-22T00:05:10.465Z,97045.86
2018-04-22T00:07:36.320Z,97047.66
2018-04-22T00:10:02.192Z,97049.74
2018-04-22T00:12:28.048Z,97045.01
2018-04-22T00:14:53.909Z,97035.80
2018-04-22T00:17:19.766Z,97035.45
2018-04-22T00:19:45.693Z,97034.22
2018-04-22T00:22:11.501Z,97043.48
2018-04-22T00:24:37.356Z,97035.67
2018-04-22T00:27:03.222Z,97030.28
2018-04-22T00:29:29.079Z,97030.57
2018-04-22T00:31:54.958Z,97034.83
2018-04-22T00:34:20.823Z,97022.81
2018-04-22T00:36:46.663Z,97022.38
2018-04-22T00:39:12.517Z,97027.56
2018-04-22T00:41:38.352Z,97026.08
2018-04-22T00:44:04.220Z,97021.05
2018-04-22T00:46:30.065Z,97017.98
2018-04-22T00:48:55.931Z,97016.95
2018-04-22T00:51:21.774Z,97022.42
2018-04-22T00:56:53.691Z,97014.88
2018-04-22T00:59:19.553Z,97006.53
2018-04-22T01:01:45.408Z,97013.75
2018-04-22T01:04:11.244Z,97011.39
2018-04-22T01:06:37.105Z,97013.77
2018-04-22T01:09:04.869Z,97015.39
2018-04-22T01:11:30.717Z,97013.20
2018-04-22T01:13:56.569Z,97009.02
2018-04-22T01:16:22.489Z,97008.58
2018-04-22T01:18:48.325Z,97012.55
2018-04-22T01:21:14.181Z,97003.75
2018-04-22T01:23:40.040Z,97005.39
2018-04-22T01:26:05.940Z,97004.91
2018-04-22T01:28:31.804Z,97010.35
2018-04-22T01:30:57.667Z,97012.36
2018-04-22T01:33:23.533Z,97003.68
2018-04-22T01:35:49.456Z,97008.81
2018-04-22T01:38:15.313Z,97009.59
2018-04-22T01:40:41.166Z,97003.85
2018-04-22T01:43:07.029Z,97004.96
2018-04-22T01:45:32.878Z,96995.19
2018-04-22T01:47:58.728Z,96999.56
2018-04-22T01:50:24.560Z,97000.73
2018-04-22T01:52:50.380Z,97001.38
2018-04-22T01:55:16.268Z,96999.63
2018-04-22T01:57:42.113Z,96995.16
2018-04-22T02:00:07.960Z,96993.19
2018-04-22T02:02:33.828Z,96998.05
2018-04-22T02:04:59.709Z,96993.21
2018-04-22T02:07:25.535Z,96998.98
2018-04-22T02:09:51.415Z,96999.36
2018-04-22T02:12:17.269Z,96997.03
2018-04-22T02:14:43.108Z,96995.03
2018-04-22T02:17:08.964Z,96976.45
2018-04-22T02:19:34.784Z,96989.78
2018-04-22T02:22:00.641Z,96990.95
2018-04-22T02:24:26.481Z,96985.88
2018-04-22T02:26:52.361Z,96983.17
2018-04-22T02:29:18.224Z,96981.98
2018-04-22T02:31:44.113Z,96980.50
2018-04-22T02:34:09.965Z,96979.37
2018-04-22T02:36:35.821Z,96975.59
2018-04-22T02:39:01.699Z,96973.78
2018-04-22T02:41:27.565Z,96976.86
2018-04-22T02:43:53.444Z,96972.93
2018-04-22T02:46:19.327Z,96976.83
2018-04-22T02:48:45.189Z,96970.93
2018-04-22T02:51:11.050Z,96967.45
2018-04-22T02:53:36.929Z,96973.26
2018-04-22T02:56:02.820Z,96969.09
2018-04-22T02:58:28.693Z,96968.05
2018-04-22T03:00:54.546Z,96968.08
2018-04-22T03:03:20.380Z,96969.41
2018-04-22T03:05:46.243Z,96969.05
2018-04-22T03:08:12.103Z,96971.33
2018-04-22T03:10:37.956Z,96967.62
2018-04-22T03:13:03.773Z,96971.95
2018-04-22T03:15:29.647Z,96969.64
2018-04-22T03:17:55.525Z,96967.81
2018-04-22T03:20:21.407Z,96965.23
2018-04-22T03:22:47.248Z,96965.44
2018-04-22T03:25:13.101Z,96958.21
2018-04-22T03:27:38.996Z,96954.53
2018-04-22T03:30:05.013Z,96957.45
2018-04-22T03:32:30.901Z,96961.53
2018-04-22T03:34:56.738Z,96965.09
2018-04-22T03:37:22.612Z,96964.94
2018-04-22T03:39:48.472Z,96964.22
2018-04-22T03:42:14.309Z,96963.48
2018-04-22T03:44:40.150Z,96954.55
2018-04-22T03:47:05.990Z,96957.95
2018-04-22T03:49:31.836Z,96963.49
2018-04-22T03:51:57.654Z,96961.31
2018-04-22T03:54:23.481Z,96963.08
2018-04-22T03:56:49.297Z,96963.31
2018-04-22T03:59:15.173Z,96957.35
2018-04-22T04:01:41.024Z,96956.58
2018-04-22T04:04:06.864Z,96962.02
2018-04-22T04:06:32.713Z,96961.15
2018-04-22T04:08:58.590Z,96959.18
2018-04-22T04:11:24.461Z,96953.75
2018-04-22T04:13:50.300Z,96959.44
2018-04-22T04:16:16.161Z,96963.65
2018-04-22T04:19:03.001Z,96957.08
2018-04-22T04:21:41.089Z,96957.35
2018-04-22T04:27:20.096Z,96963.03
2018-04-22T04:29:45.980Z,96954.41
2018-04-22T04:32:11.872Z,96951.44
2018-04-22T04:34:37.762Z,96950.02
2018-04-22T04:37:03.633Z,96958.47
2018-04-22T04:39:29.493Z,96951.89
2018-04-22T04:42:02.236Z,96955.41
2018-04-22T04:44:28.112Z,96958.66
2018-04-22T04:46:54.008Z,96958.77
2018-04-22T04:49:19.896Z,96954.88
2018-04-22T04:51:45.773Z,96956.24
2018-04-22T04:54:11.637Z,96958.02
2018-04-22T04:56:37.511Z,96961.55
2018-04-22T04:59:03.435Z,96959.59
2018-04-22T05:01:29.253Z,96960.63
2018-04-22T05:03:55.076Z,96953.58
2018-04-22T05:06:20.920Z,96962.58
2018-04-22T05:08:46.805Z,96963.02
2018-04-22T05:11:12.668Z,96963.77
2018-04-22T05:13:38.572Z,96964.64
2018-04-22T05:16:04.447Z,96954.27
2018-04-22T05:18:30.359Z,96962.47
2018-04-22T05:20:56.188Z,96964.34
2018-04-22T05:23:22.065Z,96964.63
2018-04-22T05:25:47.929Z,96964.09
2018-04-22T05:28:13.793Z,96963.59
2018-04-22T05:30:39.681Z,96967.09
2018-04-22T05:33:05.562Z,96963.75
2018-04-22T05:35:31.425Z,96956.02
2018-04-22T05:37:57.305Z,96955.91
2018-04-22T05:40:23.160Z,96959.14
2018-04-22T05:42:49.105Z,96958.09
2018-04-22T05:45:15.010Z,96964.50
2018-04-22T05:47:40.857Z,96953.59
2018-04-22T05:50:06.730Z,96964.52
2018-04-22T05:52:32.611Z,96959.19
2018-04-22T05:54:58.454Z,96960.91
2018-04-22T05:57:24.308Z,96960.59
2018-04-22T05:59:50.181Z,96961.19
2018-04-22T06:02:16.063Z,96959.42
2018-04-22T06:04:41.934Z,96957.44
2018-04-22T06:07:07.795Z,96956.54
2018-04-22T06:09:33.669Z,96960.23
2018-04-22T06:11:59.564Z,96955.98
2018-04-22T06:14:25.438Z,96951.94
2018-04-22T06:16:51.338Z,96951.77
2018-04-22T06:19:17.231Z,96948.79
2018-04-22T06:21:43.135Z,96951.11
2018-04-22T06:24:08.965Z,96949.72
2018-04-22T06:26:34.893Z,96946.27
2018-04-22T06:29:00.739Z,96952.32
2018-04-22T06:31:26.577Z,96949.94
2018-04-22T06:33:52.432Z,96942.80
2018-04-22T06:36:18.282Z,96938.41
2018-04-22T06:38:44.143Z,96942.16
2018-04-22T06:41:10.102Z,96937.11
2018-04-22T06:43:35.957Z,96937.08
2018-04-22T06:46:01.871Z,96941.83
2018-04-22T06:48:27.740Z,96941.45
2018-04-22T06:50:53.580Z,96941.08
2018-04-22T06:53:19.479Z,96939.58
2018-04-22T06:55:45.364Z,96936.48
2018-04-22T06:58:11.213Z,96934.64
2018-04-22T07:00:37.061Z,96932.32
2018-04-22T07:03:02.952Z,96933.18
2018-04-22T07:05:28.856Z,96934.41
2018-04-22T07:07:54.692Z,96936.05
2018-04-22T07:10:20.580Z,96936.25
2018-04-22T07:12:46.536Z,96932.42
2018-04-22T07:15:12.393Z,96933.17
2018-04-22T07:17:38.236Z,96929.61
2018-04-22T07:20:04.150Z,96933.56
2018-04-22T07:22:29.995Z,96928.67
2018-04-22T07:24:55.880Z,96923.38
2018-04-22T07:27:21.768Z,96927.53
2018-04-22T07:29:47.744Z,96921.67
2018-04-22T07:32:13.618Z,96924.87
2018-04-22T07:34:39.449Z,96926.58
2018-04-22T07:37:05.326Z,96924.25
2018-04-22T07:39:31.145Z,96923.69
2018-04-22T07:41:57.079Z,96923.42
2018-04-22T07:44:22.897Z,96920.62
2018-04-22T07:46:48.753Z,96931.48
2018-04-22T07:49:14.598Z,96922.20
2018-04-22T07:51:40.453Z,96922.08
2018-04-22T07:54:06.298Z,96923.70
2018-04-22T07:56:32.196Z,96924.44
2018-04-22T07:58:58.081Z,96927.74
2018-04-22T08:01:23.918Z,96929.28
2018-04-22T08:03:49.756Z,96921.89
2018-04-22T08:06:15.597Z,96930.67
2018-04-22T08:08:41.514Z,96926.70
2018-04-22T08:11:07.395Z,96933.47
2018-04-22T08:13:33.291Z,96921.13
2018-04-22T08:15:59.209Z,96924.98
2018-04-22T08:18:25.071Z,96924.23
2018-04-22T08:20:51.040Z,96923.30
2018-04-22T08:23:16.952Z,96928.86
2018-04-22T08:25:43.185Z,96916.16
2018-04-22T08:28:09.105Z,96924.63
2018-04-22T08:30:34.961Z,96911.56
2018-04-22T08:33:00.898Z,96919.83
2018-04-22T08:35:26.762Z,96916.64
2018-04-22T08:37:52.627Z,96918.58
2018-04-22T08:40:18.516Z,96913.67
2018-04-22T08:42:44.368Z,96910.27
2018-04-22T08:45:10.268Z,96900.98
2018-04-22T08:47:36.121Z,96908.33
2018-04-22T08:50:01.994Z,96901.30
2018-04-22T08:52:27.857Z,96903.45
2018-04-22T08:54:53.730Z,96902.91
2018-04-22T08:57:19.573Z,96896.20
2018-04-22T08:59:45.433Z,96902.52
2018-04-22T09:02:11.322Z,96895.96
2018-04-22T09:04:37.201Z,96892.09
2018-04-22T09:07:03.076Z,96886.28
2018-04-22T09:09:28.924Z,96892.66
2018-04-22T09:11:54.793Z,96890.55
2018-04-22T09:14:20.683Z,96894.99
2018-04-22T09:16:46.524Z,96894.73
2018-04-22T09:19:12.386Z,96887.69
2018-04-22T09:21:38.225Z,96882.19
2018-04-22T09:24:04.126Z,96881.51
2018-04-22T09:26:30.013Z,96879.69
2018-04-22T09:28:55.917Z,96882.56
2018-04-22T09:31:21.818Z,96878.95
2018-04-22T09:33:47.709Z,96877.48
2018-04-22T09:36:13.597Z,96876.85
2018-04-22T09:38:39.489Z,96880.73
2018-04-22T09:41:05.364Z,96873.09
2018-04-22T09:43:31.206Z,96875.42
2018-04-22T09:45:57.047Z,96875.03
2018-04-22T09:48:22.897Z,96876.64
2018-04-22T09:50:48.782Z,96869.88
2018-04-22T09:53:14.668Z,96867.04
2018-04-22T09:55:40.617Z,96867.91
2018-04-22T09:58:06.536Z,96864.18
2018-04-22T10:00:32.434Z,96865.30
2018-04-22T10:02:58.408Z,96854.66
2018-04-22T10:05:24.310Z,96850.51
2018-04-22T10:07:50.167Z,96853.13
2018-04-22T10:10:16.083Z,96856.95
2018-04-22T10:12:41.952Z,96848.22
2018-04-22T10:15:07.840Z,96843.45
2018-04-22T10:17:33.688Z,96844.57
2018-04-22T10:19:59.572Z,96841.01
2018-04-22T10:22:25.421Z,96840.40
2018-04-22T10:24:56.499Z,96834.75
2018-04-22T10:27:22.462Z,96834.47
2018-04-22T10:29:48.714Z,96836.88
2018-04-22T10:32:14.564Z,96831.47
2018-04-22T10:34:40.448Z,96824.02
2018-04-22T10:37:06.331Z,96821.20
2018-04-22T10:39:32.260Z,96818.30
2018-04-22T10:41:58.150Z,96814.98
2018-04-22T10:44:24.013Z,96817.33
2018-04-22T10:46:49.893Z,96814.62
2018-04-22T10:49:15.773Z,96814.30
2018-04-22T10:51:41.659Z,96814.97
2018-04-22T10:54:07.492Z,96808.59
2018-04-22T10:56:33.372Z,96800.01
2018-04-22T10:58:59.277Z,96808.74
2018-04-22T11:01:25.120Z,96800.77
2018-04-22T11:03:50.996Z,96804.73
2018-04-22T11:06:16.884Z,96802.45
2018-04-22T11:08:42.779Z,96799.91
2018-04-22T11:11:08.583Z,96795.19
2018-04-22T11:13:34.522Z,96782.33
2018-04-22T11:16:00.358Z,96784.78
2018-04-22T11:18:26.174Z,96772.69
2018-04-22T11:20:52.045Z,96775.52
2018-04-22T11:23:17.897Z,96778.16
2018-04-22T11:25:43.750Z,96774.03
2018-04-22T11:28:09.592Z,96768.83
2018-04-22T11:30:35.491Z,96771.33
2018-04-22T11:33:01.347Z,96761.33
2018-04-22T11:35:27.206Z,96765.00
2018-04-22T11:37:53.061Z,96764.89
2018-04-22T11:40:18.929Z,96758.94
2018-04-22T11:42:44.804Z,96766.80
2018-04-22T11:45:10.668Z,96759.79
2018-04-22T11:47:36.536Z,96758.05
2018-04-22T11:50:02.409Z,96759.47
2018-04-22T11:52:28.272Z,96753.69
2018-04-22T11:54:54.100Z,96753.19
2018-04-22T11:57:19.961Z,96747.67
2018-04-22T11:59:46.152Z,96745.52
2018-04-22T12:02:12.006Z,96747.56
2018-04-22T12:04:38.712Z,96741.87
2018-04-22T12:07:04.554Z,96740.02
2018-04-22T12:09:30.418Z,96738.77
2018-04-22T12:11:56.306Z,96737.14
2018-04-22T12:14:22.157Z,96730.00
2018-04-22T12:16:48.035Z,96731.02
2018-04-22T12:19:13.903Z,96732.41
2018-04-22T12:21:39.773Z,96726.61
2018-04-22T12:24:05.637Z,96727.64
2018-04-22T12:26:31.534Z,96730.16
2018-04-22T12:28:57.412Z,96725.61
2018-04-22T12:31:23.333Z,96728.24
2018-04-22T12:33:49.181Z,96720.80
2018-04-22T12:36:15.541Z,96721.64
2018-04-22T12:38:41.417Z,96719.83
2018-04-22T12:41:07.270Z,96716.58
2018-04-22T12:43:33.140Z,96714.19
2018-04-22T12:45:58.985Z,96712.55
2018-04-22T12:48:24.832Z,96715.85
2018-04-22T12:50:50.713Z,96708.27
2018-04-22T12:53:16.577Z,96707.90
2018-04-22T12:55:42.479Z,96704.12
2018-04-22T12:58:08.344Z,96700.34
2018-04-22T13:00:34.249Z,96701.63
2018-04-22T13:03:00.104Z,96700.27
2018-04-22T13:05:26.016Z,96695.30
2018-04-22T13:07:51.893Z,96691.48
2018-04-22T13:10:17.740Z,96684.33
2018-04-22T13:12:43.614Z,96675.40
2018-04-22T13:15:09.437Z,96679.20
2018-04-22T13:17:35.295Z,96673.84
2018-04-22T13:20:01.170Z,96669.52
2018-04-22T13:22:27.035Z,96664.11
2018-04-22T13:24:52.866Z,96660.58
2018-04-22T13:27:18.742Z,96664.59
2018-04-22T13:29:44.588Z,96650.98
2018-04-22T13:32:10.452Z,96649.83
2018-04-22T13:34:36.309Z,96639.90
2018-04-22T13:37:02.219Z,96640.77
2018-04-22T13:39:28.088Z,96634.73
2018-04-22T13:41:53.991Z,96635.33
2018-04-22T13:44:19.848Z,96637.55
2018-04-22T13:46:45.701Z,96632.61
2018-04-22T13:49:11.580Z,96630.50
2018-04-22T13:51:37.429Z,96626.20
2018-04-22T13:54:03.318Z,96621.17
2018-04-22T13:56:29.158Z,96611.17
2018-04-22T13:58:55.040Z,96605.30
2018-04-22T14:01:20.899Z,96601.48
2018-04-22T14:03:46.792Z,96611.64
2018-04-22T14:06:12.705Z,96601.53
2018-04-22T14:08:38.583Z,96597.45
2018-04-22T14:11:04.508Z,96599.91
2018-04-22T14:13:30.358Z,96592.36
2018-04-22T14:15:56.278Z,96591.68
2018-04-22T14:18:22.112Z,96584.55
2018-04-22T14:20:47.980Z,96575.30
2018-04-22T14:23:13.789Z,96571.06
2018-04-22T14:25:39.650Z,96574.70
2018-04-22T14:28:05.561Z,96568.38
2018-04-22T14:30:31.423Z,96570.27
2018-04-22T14:32:57.301Z,96565.36
2018-04-22T14:35:23.165Z,96559.22
2018-04-22T14:37:49.017Z,96558.29
2018-04-22T14:40:14.911Z,96555.77
2018-04-22T14:42:40.760Z,96561.86
2018-04-22T14:45:19.021Z,96560.05
2018-04-22T14:47:44.854Z,96558.22
2018-04-22T14:50:10.693Z,96545.78
2018-04-22T14:52:36.558Z,96541.46
2018-04-22T14:55:02.474Z,96542.19
2018-04-22T14:57:28.349Z,96548.78
2018-04-22T14:59:54.221Z,96545.95
2018-04-22T15:02:20.062Z,96541.91
2018-04-22T15:04:45.965Z,96534.84
2018-04-22T15:07:11.800Z,96537.40
2018-04-22T15:09:37.649Z,96529.48
2018-04-22T15:12:03.531Z,96532.59
2018-04-22T15:14:29.345Z,96524.66
2018-04-22T15:16:55.241Z,96527.84
2018-04-22T15:19:21.061Z,96524.11
2018-04-22T15:21:46.945Z,96525.28
2018-04-22T15:24:12.796Z,96528.19
2018-04-22T15:26:38.668Z,96520.96
2018-04-22T15:29:04.524Z,96525.48
2018-04-22T15:31:30.476Z,96514.83
2018-04-22T15:33:56.332Z,96518.53
2018-04-22T15:36:22.900Z,96522.59
2018-04-22T15:38:48.766Z,96512.41
2018-04-22T15:41:14.614Z,96510.80
2018-04-22T15:43:40.490Z,96509.88
2018-04-22T15:46:06.337Z,96505.72
2018-04-22T15:48:32.211Z,96501.61
2018-04-22T15:50:58.106Z,96501.99
2018-04-22T15:53:23.953Z,96495.25
2018-04-22T15:55:49.907Z,96496.79
2018-04-22T15:58:15.780Z,96499.95
2018-04-22T16:00:41.652Z,96496.45
2018-04-22T16:03:07.498Z,96494.59
2018-04-22T16:05:33.326Z,96482.92
2018-04-22T16:07:59.182Z,96489.53
2018-04-22T16:10:25.041Z,96488.34
2018-04-22T16:12:50.929Z,96489.53
2018-04-22T16:15:16.858Z,96484.95
2018-04-22T16:17:42.740Z,96488.20
2018-04-22T16:20:08.605Z,96488.70
2018-04-22T16:22:34.508Z,96487.22
2018-04-22T16:25:00.441Z,96486.09
2018-04-22T16:27:26.393Z,96495.48
2018-04-22T16:29:52.260Z,96494.30
2018-04-22T16:32:18.114Z,96491.98
2018-04-22T16:34:44.108Z,96489.80
2018-04-22T16:37:09.963Z,96493.73
2018-04-22T16:39:35.861Z,96493.23
2018-04-22T16:42:01.702Z,96489.28
2018-04-22T16:44:27.576Z,96493.91
2018-04-22T16:46:53.435Z,96497.77
2018-04-22T16:49:19.327Z,96492.63
2018-04-22T16:51:45.189Z,96492.11
2018-04-22T16:54:11.073Z,96481.86
2018-04-22T16:56:36.948Z,96491.69
2018-04-22T16:59:02.833Z,96490.74
2018-04-22T17:01:28.730Z,96495.28
2018-04-22T17:03:54.574Z,96493.22
2018-04-22T17:06:20.472Z,96486.59
2018-04-22T17:08:46.328Z,96492.19
2018-04-22T17:11:12.212Z,96494.53
2018-04-22T17:13:38.054Z,96493.13
2018-04-22T17:16:03.981Z,96491.65
2018-04-22T17:18:29.837Z,96496.92
2018-04-22T17:20:55.668Z,96495.28
2018-04-22T17:23:21.508Z,96503.48
2018-04-22T17:25:47.347Z,96503.92
2018-04-22T17:28:13.216Z,96499.51
2018-04-22T17:30:39.061Z,96499.81
2018-04-22T17:33:04.919Z,96500.05
2018-04-22T17:35:30.784Z,96497.81
2018-04-22T17:37:56.649Z,96501.11
2018-04-22T17:40:22.473Z,96507.24
2018-04-22T17:42:48.313Z,96509.63
2018-04-22T17:45:14.142Z,96509.23
2018-04-22T17:47:40.000Z,96510.99
2018-04-22T17:50:05.854Z,96513.45
2018-04-22T17:52:31.716Z,96517.06
2018-04-22T17:54:57.624Z,96521.35
2018-04-22T17:57:23.472Z,96521.30
2018-04-22T17:59:49.328Z,96517.45
2018-04-22T18:02:15.186Z,96529.32
2018-04-22T18:04:41.028Z,96526.02
2018-04-22T18:07:06.880Z,96526.98
2018-04-22T18:09:32.726Z,96523.99
2018-04-22T18:11:58.600Z,96535.30
2018-04-22T18:14:24.485Z,96531.59
2018-04-22T18:16:50.340Z,96546.39
2018-04-22T18:19:16.225Z,96546.55
2018-04-22T18:21:42.142Z,96550.28
2018-04-22T18:24:08.040Z,96549.65
2018-04-22T18:26:33.924Z,96554.25
2018-04-22T18:28:59.782Z,96552.42
2018-04-22T18:31:25.656Z,96557.66
2018-04-22T18:33:51.535Z,96560.45
2018-04-22T18:36:17.450Z,96555.50
2018-04-22T18:38:43.317Z,96563.98
2018-04-22T18:41:09.223Z,96562.58
2018-04-22T18:43:35.141Z,96565.45
2018-04-22T18:46:00.989Z,96559.86
2018-04-22T18:48:26.807Z,96566.10
2018-04-22T18:50:52.654Z,96568.91
2018-04-22T18:53:18.515Z,96560.91
2018-04-22T18:55:44.394Z,96566.80
2018-04-22T18:58:10.272Z,96567.36
2018-04-22T19:00:36.486Z,96564.83
2018-04-22T19:03:02.396Z,96568.78
2018-04-22T19:05:28.241Z,96572.71
2018-04-22T19:07:54.100Z,96572.33
2018-04-22T19:10:19.959Z,96570.28
2018-04-22T19:12:45.808Z,96574.02
2018-04-22T19:15:11.750Z,96568.51
2018-04-22T19:17:37.633Z,96568.12
2018-04-22T19:20:03.768Z,96566.55
2018-04-22T19:22:29.685Z,96575.55
2018-04-22T19:24:55.582Z,96572.31
2018-04-22T19:27:21.483Z,96560.09
2018-04-22T19:29:47.377Z,96571.54
2018-04-22T19:32:13.289Z,96568.26
2018-04-22T19:34:39.162Z,96570.13
2018-04-22T19:37:05.045Z,96568.19
2018-04-22T19:39:30.887Z,96576.84
2018-04-22T19:41:56.772Z,96579.65
2018-04-22T19:44:23.612Z,96574.81
2018-04-22T19:46:49.458Z,96585.13
2018-04-22T19:49:15.344Z,96582.68
2018-04-22T19:51:41.201Z,96579.11
2018-04-22T19:54:07.067Z,96577.96
2018-04-22T19:56:32.951Z,96574.52
2018-04-22T19:58:58.985Z,96572.78
2018-04-22T20:01:24.880Z,96572.63
2018-04-22T20:03:50.738Z,96574.13
2018-04-22T20:06:16.617Z,96570.67
2018-04-22T20:08:42.473Z,96577.36
2018-04-22T20:11:08.400Z,96573.40
2018-04-22T20:13:34.259Z,96578.99
2018-04-22T20:16:00.118Z,96577.70
2018-04-22T20:18:26.011Z,96581.49
2018-04-22T20:20:51.872Z,96572.06
2018-04-22T20:23:17.776Z,96579.66
2018-04-22T20:25:43.637Z,96579.04
2018-04-22T20:28:09.526Z,96583.09
2018-04-22T20:30:35.442Z,96581.72
2018-04-22T20:33:01.609Z,96578.77
2018-04-22T20:35:27.475Z,96577.95
2018-04-22T20:37:53.318Z,96579.55
2018-04-22T20:40:19.232Z,96578.25
2018-04-22T20:42:45.110Z,96580.11
2018-04-22T20:45:11.033Z,96588.23
2018-04-22T20:47:36.897Z,96584.20
2018-04-22T20:50:02.767Z,96587.02
2018-04-22T20:52:28.614Z,96591.05
2018-04-22T20:54:54.517Z,96592.64
2018-04-22T20:57:20.389Z,96596.41
2018-04-22T20:59:46.304Z,96604.66
2018-04-22T21:02:12.160Z,96607.56
2018-04-22T21:04:38.018Z,96603.78
2018-04-22T21:07:03.871Z,96602.34
2018-04-22T21:09:29.752Z,96586.53
2018-04-22T21:11:55.604Z,96595.70
2018-04-22T21:14:21.463Z,96593.80
2018-04-22T21:16:47.909Z,96596.87
2018-04-22T21:19:13.796Z,96597.36
2018-04-22T21:21:39.725Z,96596.14
2018-04-22T21:24:05.591Z,96597.77
2018-04-22T21:26:31.460Z,96596.07
2018-04-22T21:28:57.337Z,96601.52
2018-04-22T21:31:23.205Z,96585.77
2018-04-22T21:33:49.060Z,96607.77
2018-04-22T21:36:14.939Z,96605.59
2018-04-22T21:38:40.837Z,96606.59
2018-04-22T21:41:06.688Z,96604.85
2018-04-22T21:43:32.550Z,96608.90
2018-04-22T21:45:58.413Z,96617.16
2018-04-22T21:48:24.309Z,96611.25
2018-04-22T21:50:50.178Z,96615.33
2018-04-22T21:53:16.082Z,96626.64
2018-04-22T21:55:41.934Z,96611.86
2018-04-22T21:58:07.774Z,96618.18
2018-04-22T22:00:33.641Z,96611.91
2018-04-22T22:02:59.487Z,96611.15
2018-04-22T22:05:25.410Z,96615.00
2018-04-22T22:07:51.352Z,96612.10
2018-04-22T22:10:17.249Z,96610.44
2018-04-22T22:12:43.108Z,96610.27
2018-04-22T22:15:08.946Z,96607.33
2018-04-22T22:17:34.820Z,96606.91
2018-04-22T22:20:00.653Z,96600.84
2018-04-22T22:22:26.502Z,96609.65
2018-04-22T22:24:52.363Z,96606.00
2018-04-22T22:27:18.244Z,96607.52
2018-04-22T22:29:44.105Z,96615.69
2018-04-22T22:32:09.960Z,96619.10
2018-04-22T22:34:35.814Z,96616.95
2018-04-22T22:37:01.658Z,96615.73
2018-04-22T22:39:27.500Z,96623.61
2018-04-22T22:41:53.365Z,96617.98
2018-04-22T22:44:19.244Z,96624.17
2018-04-22T22:46:45.122Z,96620.08
2018-04-22T22:49:11.008Z,96621.78
2018-04-22T22:51:36.880Z,96622.50
2018-04-22T22:54:02.748Z,96622.45
2018-04-22T22:56:28.645Z,96624.47
2018-04-22T22:58:54.473Z,96625.00
2018-04-22T23:01:20.329Z,96633.48
2018-04-22T23:03:46.180Z,96632.34
2018-04-22T23:06:12.050Z,96637.33
2018-04-22T23:08:37.949Z,96655.59
2018-04-22T23:11:03.841Z,96662.56
2018-04-22T23:13:29.689Z,96667.12
2018-04-22T23:15:55.537Z,96671.02
2018-04-22T23:18:21.383Z,96695.88
2018-04-22T23:20:47.240Z,96686.95
2018-04-22T23:23:13.089Z,96674.33
2018-04-22T23:25:38.939Z,96676.61
2018-04-22T23:28:04.817Z,96658.59
2018-04-22T23:30:30.691Z,96662.34
2018-04-22T23:32:57.088Z,96658.91
2018-04-22T23:35:22.969Z,96663.14
2018-04-22T23:37:48.857Z,96655.50
2018-04-22T23:40:14.691Z,96666.45
2018-04-22T23:42:40.548Z,96665.59
2018-04-22T23:45:06.398Z,96667.54
2018-04-22T23:47:32.255Z,96674.19
2018-04-22T23:49:58.094Z,96672.50
2018-04-22T23:52:23.917Z,96679.22
2018-04-22T23:54:49.795Z,96667.70
2018-04-22T23:57:15.641Z,96666.47
2018-04-22T23:59:41.476Z,96675.87
